createdAt,value
2024-05-09T00:00:42.220Z,11.08
2024-05-09T00:03:11.008Z,11.06
2024-05-09T00:05:40.728Z,11.02
2024-05-09T00:08:08.959Z,10.99
2024-05-09T00:10:38.439Z,10.96
2024-05-09T00:13:07.667Z,10.94
2024-05-09T00:15:35.647Z,10.91
2024-05-09T00:18:04.176Z,10.87
2024-05-09T00:20:37.920Z,10.86
2024-05-09T00:23:12.731Z,10.85
2024-05-09T00:25:43.678Z,10.84
2024-05-09T00:28:12.399Z,10.82
2024-05-09T00:30:39.466Z,10.80
2024-05-09T00:33:08.161Z,10.79
2024-05-09T00:35:36.659Z,10.76
2024-05-09T00:38:04.503Z,10.73
2024-05-09T00:40:40.433Z,10.72
2024-05-09T00:43:10.835Z,10.70
2024-05-09T00:45:38.103Z,10.66
2024-05-09T00:48:08.425Z,10.59
2024-05-09T00:50:39.774Z,10.54
2024-05-09T00:53:08.066Z,10.51
2024-05-09T00:55:38.099Z,10.48
2024-05-09T00:58:05.670Z,10.43
2024-05-09T01:00:38.832Z,10.38
2024-05-09T01:03:08.840Z,10.31
2024-05-09T01:05:39.311Z,10.23
2024-05-09T01:08:07.815Z,10.15
2024-05-09T01:10:36.425Z,10.09
2024-05-09T01:13:04.747Z,10.02
2024-05-09T01:15:31.945Z,9.94
2024-05-09T01:18:01.406Z,9.87
2024-05-09T01:20:39.105Z,9.81
2024-05-09T01:23:10.208Z,9.73
2024-05-09T01:25:38.297Z,9.68
2024-05-09T01:28:05.831Z,9.63
2024-05-09T01:30:36.359Z,9.60
2024-05-09T01:33:08.074Z,9.56
2024-05-09T01:35:37.466Z,9.51
2024-05-09T01:38:05.104Z,9.45
2024-05-09T01:40:37.771Z,9.32
2024-05-09T01:43:11.126Z,9.16
2024-05-09T01:45:40.310Z,9.12
2024-05-09T01:48:10.364Z,9.14
2024-05-09T01:50:42.021Z,9.15
2024-05-09T01:53:15.020Z,9.13
2024-05-09T01:55:42.771Z,9.11
2024-05-09T01:58:10.208Z,9.10
2024-05-09T02:00:41.069Z,9.09
2024-05-09T02:03:14.740Z,9.09
2024-05-09T02:05:44.995Z,9.05
2024-05-09T02:08:17.600Z,9.02
2024-05-09T02:10:45.946Z,9.01
2024-05-09T02:13:13.774Z,8.99
2024-05-09T02:15:40.686Z,8.98
2024-05-09T02:18:08.173Z,8.93
2024-05-09T02:20:37.741Z,8.88
2024-05-09T02:23:06.209Z,8.84
2024-05-09T02:25:34.101Z,8.81
2024-05-09T02:28:01.343Z,8.78
2024-05-09T02:32:58.317Z,8.70
2024-05-09T02:35:26.458Z,8.65
2024-05-09T02:37:53.450Z,8.61
2024-05-09T02:40:28.304Z,8.55
2024-05-09T02:43:00.991Z,8.52
2024-05-09T02:45:27.894Z,8.48
2024-05-09T02:47:54.855Z,8.45
2024-05-09T02:50:29.828Z,8.42
2024-05-09T02:53:04.142Z,8.37
2024-05-09T02:55:31.342Z,8.32
2024-05-09T02:57:58.160Z,8.25
2024-05-09T03:00:34.275Z,8.19
2024-05-09T03:03:08.326Z,8.14
2024-05-09T03:05:36.956Z,8.11
2024-05-09T03:08:04.728Z,8.06
2024-05-09T03:10:36.272Z,8.00
2024-05-09T03:13:09.263Z,7.94
2024-05-09T03:15:36.874Z,7.91
2024-05-09T03:18:05.407Z,7.89
2024-05-09T03:20:35.469Z,7.85
2024-05-09T03:23:05.193Z,7.85
2024-05-09T03:25:32.709Z,7.81
2024-05-09T03:27:59.801Z,7.79
2024-05-09T03:30:38.838Z,7.76
2024-05-09T03:33:18.777Z,7.75
2024-05-09T03:35:47.554Z,7.73
2024-05-09T03:38:15.060Z,7.73
2024-05-09T03:40:46.775Z,7.74
2024-05-09T03:43:14.603Z,7.74
2024-05-09T03:45:45.601Z,7.63
2024-05-09T03:48:14.033Z,7.45
2024-05-09T03:50:41.896Z,7.39
2024-05-09T03:53:13.781Z,7.43
2024-05-09T03:55:41.027Z,7.43
2024-05-09T03:58:08.519Z,7.40
2024-05-09T04:00:38.905Z,7.40
2024-05-09T04:03:09.687Z,7.45
2024-05-09T04:05:43.953Z,7.49
2024-05-09T04:08:12.171Z,7.52
2024-05-09T04:10:39.348Z,7.65
2024-05-09T04:13:06.332Z,7.84
2024-05-09T04:15:33.607Z,8.02
2024-05-09T04:18:01.297Z,8.36
2024-05-09T04:20:37.498Z,8.90
2024-05-09T04:23:10.927Z,9.16
2024-05-09T04:25:38.430Z,9.67
2024-05-09T04:28:07.224Z,9.91
2024-05-09T04:30:38.758Z,10.08
2024-05-09T04:33:14.027Z,10.11
2024-05-09T04:35:42.744Z,10.04
2024-05-09T04:38:10.417Z,9.95
2024-05-09T04:40:38.058Z,9.87
2024-05-09T04:43:06.740Z,9.90
2024-05-09T04:45:34.146Z,9.84
2024-05-09T04:48:01.714Z,9.77
2024-05-09T04:50:35.644Z,9.80
2024-05-09T04:53:06.376Z,9.86
2024-05-09T04:55:33.831Z,9.79
2024-05-09T04:58:00.988Z,9.75
2024-05-09T05:00:35.819Z,9.73
2024-05-09T05:03:07.861Z,9.72
2024-05-09T05:05:40.833Z,9.71
2024-05-09T05:08:19.169Z,9.68
2024-05-09T05:10:48.137Z,9.65
2024-05-09T05:13:18.133Z,9.65
2024-05-09T05:15:47.004Z,9.65
2024-05-09T05:18:18.513Z,9.69
2024-05-09T05:20:45.798Z,9.70
2024-05-09T05:23:15.592Z,9.68
2024-05-09T05:25:43.087Z,9.66
2024-05-09T05:28:10.830Z,9.68
2024-05-09T05:30:39.066Z,9.68
2024-05-09T05:33:07.159Z,9.68
2024-05-09T05:35:35.351Z,9.70
2024-05-09T05:38:03.097Z,9.71
2024-05-09T05:40:36.515Z,9.74
2024-05-09T05:43:10.436Z,9.78
2024-05-09T05:45:39.472Z,9.83
2024-05-09T05:48:07.823Z,9.86
2024-05-09T05:50:37.518Z,9.89
2024-05-09T05:53:07.911Z,9.89
2024-05-09T05:55:42.070Z,9.90
2024-05-09T05:58:10.702Z,9.93
2024-05-09T06:00:40.110Z,9.95
2024-05-09T06:03:10.213Z,9.98
2024-05-09T06:05:44.139Z,10.02
2024-05-09T06:08:11.443Z,10.05
2024-05-09T06:10:40.653Z,10.07
2024-05-09T06:13:11.246Z,10.08
2024-05-09T06:15:39.452Z,10.07
2024-05-09T06:18:08.392Z,10.04
2024-05-09T06:20:37.954Z,10.06
2024-05-09T06:23:06.856Z,10.06
2024-05-09T06:25:35.057Z,10.06
2024-05-09T06:28:02.459Z,10.03
2024-05-09T06:30:37.868Z,10.01
2024-05-09T06:33:10.235Z,10.02
2024-05-09T06:35:38.683Z,10.05
2024-05-09T06:38:08.625Z,10.07
2024-05-09T06:40:38.618Z,10.09
2024-05-09T06:43:15.551Z,10.09
2024-05-09T06:45:46.082Z,10.08
2024-05-09T06:48:12.946Z,10.10
2024-05-09T06:50:41.189Z,10.14
2024-05-09T06:53:09.388Z,10.22
2024-05-09T06:55:37.467Z,10.27
2024-05-09T06:58:11.452Z,10.34
2024-05-09T07:00:41.077Z,10.38
2024-05-09T07:03:12.280Z,10.42
2024-05-09T07:05:40.911Z,10.46
2024-05-09T07:08:07.878Z,10.51
2024-05-09T07:10:36.482Z,10.54
2024-05-09T07:13:15.058Z,10.59
2024-05-09T07:15:42.552Z,10.66
2024-05-09T07:18:11.981Z,10.70
2024-05-09T07:20:40.256Z,10.73
2024-05-09T07:23:12.040Z,10.77
2024-05-09T07:25:40.628Z,10.82
2024-05-09T07:28:14.541Z,10.90
2024-05-09T07:30:42.134Z,10.96
2024-05-09T07:33:09.262Z,11.02
2024-05-09T07:35:36.466Z,11.10
2024-05-09T07:38:03.851Z,11.18
2024-05-09T07:40:35.911Z,11.24
2024-05-09T07:43:08.194Z,11.30
2024-05-09T07:53:36.861Z,11.61
2024-05-09T07:55:56.803Z,11.70
2024-05-09T07:58:28.033Z,11.78
2024-05-09T08:00:55.312Z,11.85
2024-05-09T08:03:22.783Z,11.93
2024-05-09T08:05:51.785Z,11.99
2024-05-09T08:08:18.779Z,12.06
2024-05-09T08:10:46.582Z,12.17
2024-05-09T08:13:13.790Z,12.26
2024-05-09T08:15:40.781Z,12.34
2024-05-09T08:18:09.516Z,12.44
2024-05-09T08:20:38.563Z,12.53
2024-05-09T08:23:05.723Z,12.59
2024-05-09T08:25:32.667Z,12.66
2024-05-09T08:27:59.989Z,12.74
2024-05-09T08:30:33.474Z,12.78
2024-05-09T08:33:05.856Z,12.83
2024-05-09T08:35:33.690Z,12.89
2024-05-09T08:38:03.151Z,12.97
2024-05-09T08:40:35.399Z,13.03
2024-05-09T08:43:10.286Z,13.06
2024-05-09T08:45:42.299Z,13.09
2024-05-09T08:48:12.796Z,13.14
2024-05-09T08:50:41.656Z,13.23
2024-05-09T08:53:09.288Z,13.36
2024-05-09T08:55:40.553Z,13.50
2024-05-09T08:58:17.364Z,13.66
2024-05-09T09:00:46.190Z,13.82
2024-05-09T09:03:18.800Z,13.95
2024-05-09T09:05:54.902Z,14.05
2024-05-09T09:08:22.743Z,14.19
2024-05-09T09:10:53.876Z,14.29
2024-05-09T09:13:20.786Z,14.32
2024-05-09T09:15:51.076Z,14.39
2024-05-09T09:18:18.689Z,14.51
2024-05-09T09:20:46.191Z,14.63
2024-05-09T09:23:12.903Z,14.69
2024-05-09T09:25:40.876Z,14.75
2024-05-09T09:28:08.970Z,14.77
2024-05-09T09:30:43.352Z,14.76
2024-05-09T09:33:10.863Z,14.91
2024-05-09T09:35:40.263Z,15.13
2024-05-09T09:38:08.213Z,15.31
2024-05-09T09:40:42.509Z,15.38
2024-05-09T09:43:22.741Z,15.42
2024-05-09T09:45:52.632Z,15.48
2024-05-09T09:48:21.461Z,15.56
2024-05-09T09:50:51.956Z,15.61
2024-05-09T09:53:19.763Z,15.61
2024-05-09T09:55:48.353Z,15.59
2024-05-09T09:58:17.548Z,15.63
2024-05-09T10:00:45.369Z,15.69
2024-05-09T10:03:12.850Z,15.70
2024-05-09T10:05:43.071Z,15.73
2024-05-09T10:08:13.176Z,15.70
2024-05-09T10:10:45.723Z,15.67
2024-05-09T10:13:13.060Z,15.66
2024-05-09T10:15:53.840Z,15.64
2024-05-09T10:18:27.302Z,15.66
2024-05-09T10:20:56.360Z,15.68
2024-05-09T10:23:32.443Z,15.67
2024-05-09T10:26:05.896Z,15.58
2024-05-09T10:28:35.546Z,15.50
2024-05-09T10:31:15.040Z,15.46
2024-05-09T10:33:49.082Z,15.47
2024-05-09T10:36:24.570Z,15.52
2024-05-09T10:38:56.123Z,15.58
2024-05-09T10:41:24.437Z,15.67
2024-05-09T10:43:52.244Z,15.71
2024-05-09T10:46:20.312Z,15.76
2024-05-09T10:48:48.643Z,15.73
2024-05-09T10:51:17.172Z,15.64
2024-05-09T10:53:45.564Z,15.61
2024-05-09T10:56:17.612Z,15.64
2024-05-09T10:58:45.040Z,15.69
2024-05-09T11:01:13.458Z,15.70
2024-05-09T11:03:41.818Z,15.73
2024-05-09T11:06:11.566Z,15.71
2024-05-09T11:08:39.255Z,15.74
2024-05-09T11:11:08.854Z,15.79
2024-05-09T11:13:38.802Z,15.77
2024-05-09T11:16:26.152Z,15.74
2024-05-09T11:18:55.766Z,15.77
2024-05-09T11:21:23.178Z,15.82
2024-05-09T11:23:50.844Z,15.85
2024-05-09T11:26:19.843Z,15.84
2024-05-09T11:28:47.023Z,15.82
2024-05-09T11:31:14.045Z,15.78
2024-05-09T11:33:48.263Z,15.73
2024-05-09T11:36:16.083Z,15.70
2024-05-09T11:38:43.364Z,15.69
2024-05-09T11:41:18.690Z,15.69
2024-05-09T11:43:46.511Z,15.74
2024-05-09T11:46:13.836Z,15.75
2024-05-09T11:48:41.148Z,15.73
2024-05-09T11:51:08.257Z,15.73
2024-05-09T11:54:09.902Z,15.75
2024-05-09T11:56:36.819Z,15.79
2024-05-09T11:59:03.788Z,15.80
2024-05-09T12:01:30.852Z,15.83
2024-05-09T12:03:58.329Z,15.92
2024-05-09T12:06:25.643Z,16.04
2024-05-09T12:08:52.575Z,16.12
2024-05-09T12:11:19.469Z,16.10
2024-05-09T12:13:46.278Z,16.06
2024-05-09T12:16:13.170Z,16.06
2024-05-09T12:18:40.020Z,16.09
2024-05-09T12:21:06.788Z,16.09
2024-05-09T12:23:33.511Z,16.14
2024-05-09T12:26:00.326Z,16.18
2024-05-09T12:28:27.176Z,16.22
2024-05-09T12:30:54.068Z,16.31
2024-05-09T12:33:21.696Z,16.43
2024-05-09T12:35:50.859Z,16.54
2024-05-09T12:38:18.576Z,16.62
2024-05-09T12:40:45.365Z,16.63
2024-05-09T12:43:13.733Z,16.56
2024-05-09T12:45:40.771Z,16.58
2024-05-09T12:48:11.908Z,16.64
2024-05-09T12:50:39.607Z,16.65
2024-05-09T12:53:06.503Z,16.66
2024-05-09T12:55:41.299Z,16.67
2024-05-09T12:58:18.663Z,16.64
2024-05-09T13:00:46.395Z,16.62
2024-05-09T13:03:13.834Z,16.61
2024-05-09T13:05:41.341Z,16.62
2024-05-09T13:08:08.629Z,16.68
2024-05-09T13:10:35.880Z,16.69
2024-05-09T13:13:05.590Z,16.68
2024-05-09T13:15:42.712Z,16.68
2024-05-09T13:18:09.905Z,16.72
2024-05-09T13:20:37.152Z,16.79
2024-05-09T13:23:06.712Z,16.82
2024-05-09T13:25:35.156Z,16.85
2024-05-09T13:28:03.759Z,16.88
2024-05-09T13:30:39.060Z,16.86
2024-05-09T13:33:11.274Z,16.76
2024-05-09T13:35:39.806Z,16.69
2024-05-09T13:38:07.575Z,16.63
2024-05-09T13:40:36.180Z,16.61
2024-05-09T13:43:06.810Z,16.59
2024-05-09T13:45:34.941Z,16.57
2024-05-09T13:48:03.523Z,16.56
2024-05-09T13:50:34.760Z,16.61
2024-05-09T13:53:05.370Z,16.71
2024-05-09T13:55:33.448Z,16.80
2024-05-09T13:58:01.226Z,16.80
2024-05-09T14:00:41.444Z,16.84
2024-05-09T14:03:14.046Z,16.88
2024-05-09T14:05:41.485Z,16.84
2024-05-09T14:08:08.825Z,16.74
2024-05-09T14:10:35.826Z,16.67
2024-05-09T14:13:02.846Z,16.62
2024-05-09T14:15:30.103Z,16.67
2024-05-09T14:17:57.271Z,16.74
2024-05-09T14:20:30.848Z,16.79
2024-05-09T14:23:01.977Z,16.78
2024-05-09T14:25:30.330Z,16.79
2024-05-09T14:27:58.164Z,16.85
2024-05-09T14:30:34.491Z,16.92
2024-05-09T14:33:05.846Z,16.97
2024-05-09T14:35:33.668Z,17.00
2024-05-09T14:38:00.629Z,17.02
2024-05-09T14:40:37.100Z,17.03
2024-05-09T14:43:14.538Z,17.01
2024-05-09T14:45:42.184Z,16.94
2024-05-09T14:48:09.585Z,16.85
2024-05-09T14:50:39.266Z,16.78
2024-05-09T14:53:09.439Z,16.74
2024-05-09T14:55:38.790Z,16.70
2024-05-09T14:58:06.385Z,16.73
2024-05-09T15:00:41.318Z,16.75
2024-05-09T15:03:11.955Z,16.78
2024-05-09T15:05:39.075Z,16.78
2024-05-09T15:08:07.836Z,16.76
2024-05-09T15:10:37.955Z,16.70
2024-05-09T15:13:07.047Z,16.65
2024-05-09T15:15:35.582Z,16.63
2024-05-09T15:18:06.605Z,16.62
2024-05-09T15:20:36.932Z,16.56
2024-05-09T15:23:05.518Z,16.51
2024-05-09T15:25:33.837Z,16.47
2024-05-09T15:28:00.902Z,16.44
2024-05-09T15:30:31.122Z,16.41
2024-05-09T15:33:01.233Z,16.39
2024-05-09T15:35:29.168Z,16.37
2024-05-09T15:37:56.586Z,16.38
2024-05-09T15:40:34.461Z,16.41
2024-05-09T15:43:06.721Z,16.46
2024-05-09T15:45:34.457Z,16.52
2024-05-09T15:48:02.601Z,16.53
2024-05-09T15:50:36.940Z,16.54
2024-05-09T15:53:08.720Z,16.58
2024-05-09T15:55:36.528Z,16.61
2024-05-09T15:58:05.040Z,16.62
2024-05-09T16:00:39.206Z,16.67
2024-05-09T16:03:15.824Z,16.70
2024-05-09T16:05:48.745Z,16.71
2024-05-09T16:08:16.300Z,16.68
2024-05-09T16:10:46.051Z,16.65
2024-05-09T16:13:14.718Z,16.67
2024-05-09T16:15:43.605Z,16.70
2024-05-09T16:18:10.806Z,16.71
2024-05-09T16:20:41.750Z,16.74
2024-05-09T16:23:10.711Z,16.77
2024-05-09T16:25:38.998Z,16.79
2024-05-09T16:28:09.012Z,16.77
2024-05-09T16:30:41.325Z,16.73
2024-05-09T16:33:08.992Z,16.73
2024-05-09T16:35:37.283Z,16.75
2024-05-09T16:38:04.847Z,16.76
2024-05-09T16:40:39.032Z,16.76
2024-05-09T16:43:09.111Z,16.73
2024-05-09T16:45:37.685Z,16.70
2024-05-09T16:48:06.295Z,16.69
2024-05-09T16:50:35.029Z,16.68
2024-05-09T16:53:04.501Z,16.64
2024-05-09T16:55:32.150Z,16.62
2024-05-09T16:58:00.534Z,16.60
2024-05-09T17:00:38.140Z,16.57
2024-05-09T17:03:11.232Z,16.57
2024-05-09T17:05:39.425Z,16.55
2024-05-09T17:08:07.332Z,16.53
2024-05-09T17:10:35.949Z,16.52
2024-05-09T17:13:04.973Z,16.51
2024-05-09T17:15:33.963Z,16.51
2024-05-09T17:18:03.334Z,16.49
2024-05-09T17:20:34.559Z,16.47
2024-05-09T17:23:05.360Z,16.45
2024-05-09T17:25:34.123Z,16.41
2024-05-09T17:28:07.003Z,16.38
2024-05-09T17:30:38.345Z,16.33
2024-05-09T17:33:09.104Z,16.30
2024-05-09T17:35:36.902Z,16.27
2024-05-09T17:38:07.616Z,16.25
2024-05-09T17:40:37.004Z,16.23
2024-05-09T17:43:07.067Z,16.20
2024-05-09T17:45:40.692Z,16.17
2024-05-09T17:48:09.569Z,16.15
2024-05-09T17:50:37.950Z,16.13
2024-05-09T17:53:06.541Z,16.13
2024-05-09T17:55:34.002Z,16.13
2024-05-09T17:58:01.762Z,16.13
2024-05-09T18:00:36.854Z,16.08
2024-05-09T18:03:08.191Z,16.02
2024-05-09T18:05:36.736Z,15.99
2024-05-09T18:08:05.271Z,15.97
2024-05-09T18:10:36.834Z,15.95
2024-05-09T18:13:08.226Z,15.93
2024-05-09T18:15:35.625Z,15.87
2024-05-09T18:18:03.274Z,15.82
2024-05-09T18:20:39.374Z,15.76
2024-05-09T18:23:10.870Z,15.71
2024-05-09T18:25:37.773Z,15.66
2024-05-09T18:28:05.736Z,15.55
2024-05-09T18:30:48.345Z,15.45
2024-05-09T18:33:17.038Z,15.40
2024-05-09T18:35:45.187Z,15.37
2024-05-09T18:38:12.688Z,15.30
2024-05-09T18:40:41.166Z,15.23
2024-05-09T18:43:10.533Z,15.16
2024-05-09T18:45:38.446Z,15.11
2024-05-09T18:48:07.356Z,15.08
2024-05-09T18:50:38.589Z,15.05
2024-05-09T18:53:08.342Z,15.02
2024-05-09T18:55:35.604Z,15.00
2024-05-09T18:58:03.705Z,14.99
2024-05-09T19:00:35.349Z,14.96
2024-05-09T19:03:11.252Z,14.89
2024-05-09T19:05:40.994Z,14.86
2024-05-09T19:08:08.847Z,14.81
2024-05-09T19:10:38.445Z,14.78
2024-05-09T19:13:09.254Z,14.75
2024-05-09T19:15:39.888Z,14.73
2024-05-09T19:18:07.543Z,14.70
2024-05-09T19:20:36.385Z,14.68
2024-05-09T19:23:05.354Z,14.65
2024-05-09T19:25:33.033Z,14.61
2024-05-09T19:28:00.411Z,14.56
2024-05-09T19:30:36.701Z,14.51
2024-05-09T19:33:08.723Z,14.45
2024-05-09T19:35:36.230Z,14.39
2024-05-09T19:38:03.284Z,14.33
2024-05-09T19:40:32.466Z,14.31
2024-05-09T19:43:02.581Z,14.27
2024-05-09T19:45:30.308Z,14.23
2024-05-09T19:47:57.619Z,14.19
2024-05-09T19:50:32.446Z,14.14
2024-05-09T19:53:09.874Z,14.08
2024-05-09T19:55:37.046Z,14.02
2024-05-09T19:58:05.613Z,13.99
2024-05-09T20:00:36.806Z,13.96
2024-05-09T20:03:05.761Z,13.91
2024-05-09T20:05:33.446Z,13.87
2024-05-09T20:08:00.964Z,13.81
2024-05-09T20:10:32.463Z,13.76
2024-05-09T20:13:02.626Z,13.69
2024-05-09T20:15:29.800Z,13.62
2024-05-09T20:17:56.879Z,13.54
2024-05-09T20:20:32.811Z,13.50
2024-05-09T20:23:06.051Z,13.46
2024-05-09T20:26:05.832Z,13.42
2024-05-09T20:28:37.184Z,13.35
2024-05-09T20:31:04.510Z,13.25
2024-05-09T20:33:31.364Z,13.12
2024-05-09T20:36:00.519Z,13.04
2024-05-09T20:38:28.569Z,12.99
2024-05-09T20:40:55.672Z,12.98
2024-05-09T20:43:23.033Z,12.97
2024-05-09T20:45:49.821Z,12.96
2024-05-09T20:48:16.791Z,12.94
2024-05-09T20:50:43.867Z,12.91
2024-05-09T20:53:12.495Z,12.91
2024-05-09T20:55:40.606Z,12.87
2024-05-09T20:58:10.511Z,12.79
2024-05-09T21:00:42.727Z,12.68
2024-05-09T21:03:13.479Z,12.59
2024-05-09T21:05:43.161Z,12.55
2024-05-09T21:08:10.228Z,12.50
2024-05-09T21:10:37.732Z,12.46
2024-05-09T21:13:05.876Z,12.42
2024-05-09T21:15:33.767Z,12.33
2024-05-09T21:18:00.929Z,12.23
2024-05-09T21:20:31.568Z,12.18
2024-05-09T21:23:01.289Z,12.12
2024-05-09T21:25:28.545Z,12.07
2024-05-09T21:27:55.621Z,12.02
2024-05-09T21:30:32.178Z,11.89
2024-05-09T21:33:13.172Z,11.77
2024-05-09T21:35:41.714Z,11.70
2024-05-09T21:38:08.461Z,11.64
2024-05-09T21:40:37.351Z,11.57
2024-05-09T21:43:06.724Z,11.53
2024-05-09T21:45:35.012Z,11.55
2024-05-09T21:48:07.778Z,11.59
2024-05-09T21:50:40.115Z,11.60
2024-05-09T21:53:10.508Z,11.57
2024-05-09T21:55:37.544Z,11.55
2024-05-09T21:58:04.648Z,11.54
2024-05-09T22:00:36.938Z,11.53
2024-05-09T22:03:10.675Z,11.49
2024-05-09T22:05:41.452Z,11.43
2024-05-09T22:08:08.279Z,11.39
2024-05-09T22:10:36.653Z,11.35
2024-05-09T22:13:05.691Z,11.34
2024-05-09T22:15:37.806Z,11.33
2024-05-09T22:18:07.318Z,11.34
2024-05-09T22:20:38.296Z,11.34
2024-05-09T22:23:08.387Z,11.33
2024-05-09T22:25:36.935Z,11.28
2024-05-09T22:28:04.428Z,11.27
2024-05-09T22:30:36.598Z,11.26
2024-05-09T22:33:10.966Z,11.19
2024-05-09T22:35:40.082Z,11.17
2024-05-09T22:38:06.987Z,11.17
2024-05-09T22:40:43.324Z,11.19
2024-05-09T22:43:23.223Z,11.20
2024-05-09T22:45:54.271Z,11.20
2024-05-09T22:48:21.709Z,11.20
2024-05-09T22:50:48.790Z,11.17
2024-05-09T22:53:15.679Z,11.10
2024-05-09T22:55:42.604Z,11.06
2024-05-09T22:58:09.636Z,11.02
2024-05-09T23:00:38.846Z,10.96
2024-05-09T23:03:06.307Z,10.90
2024-05-09T23:05:33.512Z,10.85
2024-05-09T23:08:02.059Z,10.80
2024-05-09T23:10:35.557Z,10.76
2024-05-09T23:13:05.616Z,10.71
2024-05-09T23:15:34.054Z,10.67
2024-05-09T23:18:01.204Z,10.65
2024-05-09T23:20:36.240Z,10.60
2024-05-09T23:23:07.003Z,10.54
2024-05-09T23:25:34.624Z,10.51
2024-05-09T23:28:01.702Z,10.49
2024-05-09T23:30:36.261Z,10.49
2024-05-09T23:33:06.943Z,10.46
2024-05-09T23:35:33.941Z,10.43
2024-05-09T23:38:00.782Z,10.41
2024-05-09T23:40:37.426Z,10.38
2024-05-09T23:43:11.259Z,10.37
2024-05-09T23:45:38.932Z,10.37
2024-05-09T23:48:06.591Z,10.35
2024-05-09T23:50:36.698Z,10.33
2024-05-09T23:53:07.505Z,10.31
2024-05-09T23:55:35.650Z,10.28
2024-05-09T23:58:02.512Z,10.27
